Time;durP1;ratioP1;P1;durP2;ratioP2;P2;SDS_P1;SDS_P2;PMS_P1;PMS_P2;Temp;Humidity;BMP_temperature;BMP_pressure;BME280_temperature;BME280_humidity;BME280_pressure;Samples;Min_cycle;Max_cycle;Signal;HPM_P1;HPM_P2
2021/07/13 00:01:25;;;;;;;10.28;7.05;;;;;;;20.69;73.56;99554.97;1707582;82;21044;-66
2021/07/13 00:03:53;;;;;;;10.18;7.67;;;;;;;20.69;73.57;99548.66;1705744;83;21009;-65
2021/07/13 00:06:21;;;;;;;9.43;7.42;;;;;;;20.65;73.64;99546.34;1717497;82;21093;-65
2021/07/13 00:08:51;;;;;;;9.60;6.67;;;;;;;20.54;73.75;99546.55;1716373;83;21514;-66
2021/07/13 00:11:19;;;;;;;7.58;6.72;;;;;;;20.50;73.97;99546.42;1714144;82;21122;-66
2021/07/13 00:13:48;;;;;;;8.20;6.97;;;;;;;20.49;74.29;99548.94;1717880;83;21616;-66
2021/07/13 00:16:16;;;;;;;10.65;6.95;;;;;;;20.47;74.26;99540.77;1712274;82;21083;-64
2021/07/13 00:18:43;;;;;;;11.43;6.97;;;;;;;20.45;74.37;99538.90;1711633;83;21055;-66
2021/07/13 00:21:09;;;;;;;9.80;7.60;;;;;;;20.45;74.34;99543.86;1710561;83;21518;-65
2021/07/13 00:23:36;;;;;;;10.55;7.67;;;;;;;20.39;74.35;99543.04;1711635;84;21046;-65
2021/07/13 00:26:04;;;;;;;10.28;7.22;;;;;;;20.30;74.61;99543.92;1712155;82;21063;-66
2021/07/13 00:28:31;;;;;;;11.60;7.40;;;;;;;20.25;74.64;99536.41;1683172;85;21557;-66
2021/07/13 00:30:58;;;;;;;9.60;6.62;;;;;;;20.22;74.63;99535.14;1697711;83;21106;-65
2021/07/13 00:33:26;;;;;;;11.45;6.55;;;;;;;20.16;74.68;99535.09;1683051;83;21529;-65
2021/07/13 00:35:52;;;;;;;8.23;6.80;;;;;;;20.10;75.13;99537.84;1682623;85;21059;-66
2021/07/13 00:38:20;;;;;;;8.90;7.35;;;;;;;20.09;75.34;99543.69;1717582;83;20994;-66
2021/07/13 00:40:46;;;;;;;8.95;7.22;;;;;;;20.00;75.41;99524.45;1716970;82;21524;-66
2021/07/13 00:43:12;;;;;;;7.92;7.12;;;;;;;20.00;75.64;99545.17;1716451;83;21057;-66
2021/07/13 00:45:39;;;;;;;8.73;6.87;;;;;;;20.00;75.69;99547.12;1717325;83;21006;-66
2021/07/13 00:48:06;;;;;;;8.60;7.70;;;;;;;20.01;75.63;99544.03;1663274;85;21039;-66
2021/07/13 00:50:32;;;;;;;9.35;7.15;;;;;;;20.01;75.50;99555.09;1652777;87;21033;-66
2021/07/13 00:53:01;;;;;;;8.88;7.97;;;;;;;19.99;75.62;99546.31;1656597;86;21087;-66
2021/07/13 00:55:27;;;;;;;10.65;7.78;;;;;;;20.00;75.72;99554.84;1657559;85;21108;-66
2021/07/13 00:57:53;;;;;;;10.38;7.37;;;;;;;20.02;75.64;99550.34;1656158;86;21056;-66
2021/07/13 01:00:21;;;;;;;8.20;7.30;;;;;;;20.03;75.52;99554.73;1713326;82;21017;-66
2021/07/13 01:02:50;;;;;;;9.08;7.58;;;;;;;19.99;75.58;99549.07;1712761;82;21008;-65
2021/07/13 01:05:19;;;;;;;11.18;8.30;;;;;;;19.95;75.68;99544.55;1696250;82;21061;-66
2021/07/13 01:08:27;;;;;;;9.58;7.42;;;;;;;19.93;75.68;99544.09;1717844;83;21906;-66
2021/07/13 01:11:24;;;;;;;9.30;8.03;;;;;;;19.93;75.63;99543.53;1716575;82;21109;-66
2021/07/13 01:14:03;;;;;;;8.70;7.42;;;;;;;19.94;75.73;99547.10;1716310;83;21532;-66
2021/07/13 01:16:51;;;;;;;11.50;8.10;;;;;;;19.94;75.72;99551.25;1714034;83;21160;-66
2021/07/13 01:20:01;;;;;;;9.75;8.38;;;;;;;19.92;75.58;99544.66;1709559;83;21549;-68
2021/07/13 01:22:31;;;;;;;8.40;7.03;;;;;;;19.84;75.65;99547.73;1716205;83;21662;-66
2021/07/13 01:25:12;;;;;;;8.63;7.40;;;;;;;19.72;75.80;99552.39;1716979;82;20990;-66
2021/07/13 01:28:00;;;;;;;9.95;7.40;;;;;;;19.68;75.79;99548.69;1717100;83;21089;-66
2021/07/13 01:30:28;;;;;;;;;;;;;;;19.60;75.92;99550.92;1720674;83;21524;-66
2021/07/13 01:33:06;;;;;;;9.75;7.08;;;;;;;19.48;76.12;99553.05;1717923;83;20119;-66
2021/07/13 01:35:50;;;;;;;10.28;7.45;;;;;;;19.32;76.68;99550.02;1716667;82;21418;-66
2021/07/13 01:38:18;;;;;;;9.55;7.40;;;;;;;19.30;77.02;99546.80;1717123;83;21023;-66
2021/07/13 01:40:48;;;;;;;9.15;7.28;;;;;;;19.23;77.24;99553.42;1713595;83;21550;-66
2021/07/13 01:43:14;;;;;;;9.00;7.00;;;;;;;19.23;77.48;99554.80;1713205;83;20950;-66
2021/07/13 01:45:42;;;;;;;9.98;7.60;;;;;;;19.26;77.39;99551.94;1716469;82;21069;-66
2021/07/13 01:48:12;;;;;;;;;;;;;;;19.24;77.37;99563.30;1722981;83;21053;-66
2021/07/13 01:50:41;;;;;;;8.60;7.42;;;;;;;19.20;77.53;99554.66;1716578;82;20102;-66
2021/07/13 01:53:07;;;;;;;9.98;8.20;;;;;;;19.09;77.86;99562.50;1716409;83;21084;-64
2021/07/13 01:55:34;;;;;;;;;;;;;;;19.07;77.95;99556.49;1719175;82;21037;-66
2021/07/13 01:58:01;;;;;;;10.10;7.50;;;;;;;19.05;77.85;99562.11;1714427;83;20093;-66
2021/07/13 02:00:27;;;;;;;10.55;7.15;;;;;;;18.98;78.20;99565.39;1709777;84;21051;-66
2021/07/13 02:02:54;;;;;;;11.60;7.50;;;;;;;18.95;78.34;99569.38;1712916;83;20978;-65
2021/07/13 02:05:20;;;;;;;13.70;7.33;;;;;;;18.93;78.49;99558.66;1716908;82;21037;-66
2021/07/13 02:07:49;;;;;;;9.63;7.10;;;;;;;18.87;78.53;99560.00;1696740;83;21528;-66
2021/07/13 02:10:19;;;;;;;10.68;6.97;;;;;;;18.82;78.75;99560.98;1716137;82;21053;-66
2021/07/13 02:12:46;;;;;;;9.43;7.50;;;;;;;18.80;78.90;99561.08;1716221;83;21033;-65
2021/07/13 02:15:13;;;;;;;10.18;7.62;;;;;;;18.80;79.10;99557.76;1717589;82;21053;-66
2021/07/13 02:17:40;;;;;;;9.75;7.00;;;;;;;18.85;79.25;99558.94;1717159;83;20982;-66
2021/07/13 02:20:09;;;;;;;8.43;7.53;;;;;;;18.90;79.28;99560.71;1733180;82;21616;-66
2021/07/13 02:22:36;;;;;;;10.45;8.28;;;;;;;18.97;79.29;99562.38;1745544;82;20984;-65
2021/07/13 02:25:05;;;;;;;9.60;8.25;;;;;;;19.03;79.23;99570.70;1705392;83;20945;-65
2021/07/13 02:27:32;;;;;;;13.38;9.08;;;;;;;19.11;79.28;99573.19;1709087;83;21610;-66
2021/07/13 02:30:00;;;;;;;11.12;8.90;;;;;;;19.18;79.12;99569.34;1719609;82;21518;-66
2021/07/13 02:32:48;;;;;;;9.83;8.68;;;;;;;19.18;79.03;99572.09;1716607;83;21453;-65
2021/07/13 02:35:15;;;;;;;11.88;8.58;;;;;;;19.18;78.99;99574.86;1716440;82;21552;-65
2021/07/13 02:37:43;;;;;;;11.40;8.75;;;;;;;19.19;78.81;99577.86;1716546;83;20982;-66
2021/07/13 02:40:11;;;;;;;11.22;8.10;;;;;;;19.25;78.60;99576.52;1716666;82;21037;-66
2021/07/13 02:42:43;;;;;;;14.80;8.70;;;;;;;19.30;78.49;99584.06;1716984;83;20967;-66
2021/07/13 02:45:10;;;;;;;12.63;7.95;;;;;;;19.33;78.46;99577.88;1718035;83;21086;-66
2021/07/13 02:47:41;;;;;;;9.68;7.72;;;;;;;19.34;78.42;99576.70;1662358;85;20977;-66
2021/07/13 02:50:08;;;;;;;10.13;8.13;;;;;;;19.38;78.49;99575.47;1653547;87;21120;-66
2021/07/13 02:52:36;;;;;;;9.80;8.73;;;;;;;19.39;78.51;99581.23;1656949;86;20992;-66
2021/07/13 02:55:09;;;;;;;10.32;8.93;;;;;;;19.37;78.76;99584.34;1715322;82;21426;-66
2021/07/13 02:57:39;;;;;;;10.58;8.48;;;;;;;19.40;78.76;99582.86;1691798;84;21028;-66
2021/07/13 03:00:08;;;;;;;9.30;8.40;;;;;;;19.43;78.55;99573.13;1715201;84;21039;-66
2021/07/13 03:02:34;;;;;;;9.20;7.85;;;;;;;19.39;78.56;99584.00;1720210;83;20950;-66
2021/07/13 03:05:00;;;;;;;9.03;7.78;;;;;;;19.42;78.84;99583.36;1721861;82;20953;-66
2021/07/13 03:07:27;;;;;;;8.63;7.72;;;;;;;19.48;78.85;99580.66;1723123;83;21512;-66
2021/07/13 03:09:54;;;;;;;9.58;7.35;;;;;;;19.52;78.74;99581.58;1722286;82;21013;-65
2021/07/13 03:12:21;;;;;;;10.13;7.50;;;;;;;19.51;78.77;99576.41;1694120;84;21526;-65
2021/07/13 03:14:49;;;;;;;9.80;7.30;;;;;;;19.55;78.92;99582.89;1714652;82;21504;-66
2021/07/13 03:17:16;;;;;;;10.05;8.28;;;;;;;19.66;79.16;99582.73;1722477;83;20965;-66
2021/07/13 03:19:44;;;;;;;11.70;8.10;;;;;;;19.87;79.69;99583.56;1694764;83;21044;-66
2021/07/13 03:22:24;;;;;;;9.90;6.87;;;;;;;20.15;79.93;99579.09;1720215;82;21051;-66
2021/07/13 03:24:51;;;;;;;9.95;7.75;;;;;;;20.44;79.30;99581.54;1718227;82;21021;-66
2021/07/13 03:27:21;;;;;;;8.30;6.70;;;;;;;20.67;78.50;99584.13;1723254;83;21476;-66
2021/07/13 03:29:49;;;;;;;8.88;7.72;;;;;;;20.88;77.86;99589.02;1723049;83;21029;-66
2021/07/13 03:32:16;;;;;;;8.70;7.80;;;;;;;21.12;77.51;99583.53;1695075;83;20977;-66
2021/07/13 03:34:44;;;;;;;8.25;7.45;;;;;;;21.48;76.77;99586.06;1723846;83;21016;-66
2021/07/13 03:37:10;;;;;;;8.75;7.62;;;;;;;21.82;75.94;99592.50;1694673;83;21046;-66
2021/07/13 03:39:37;;;;;;;11.73;7.33;;;;;;;22.18;74.34;99592.40;1722298;83;20979;-66
2021/07/13 03:42:03;;;;;;;10.40;8.15;;;;;;;22.51;73.10;99591.34;1718846;83;21567;-66
2021/07/13 03:44:30;;;;;;;10.13;7.60;;;;;;;22.83;72.23;99588.07;1694788;83;21410;-66
2021/07/13 03:46:56;;;;;;;9.48;7.85;;;;;;;23.08;71.14;99595.88;1719632;82;21001;-66
2021/07/13 03:49:24;;;;;;;9.58;7.47;;;;;;;23.19;69.82;99594.19;1703140;84;21051;-66
2021/07/13 03:51:50;;;;;;;9.25;7.72;;;;;;;23.21;69.08;99597.97;1703044;84;21055;-66
2021/07/13 03:54:19;;;;;;;9.23;7.58;;;;;;;23.14;68.36;99599.18;1683715;85;21545;-66
2021/07/13 03:56:49;;;;;;;8.58;7.67;;;;;;;23.08;68.09;99588.94;1688844;83;21679;-66
2021/07/13 03:59:16;;;;;;;9.60;7.62;;;;;;;23.00;68.03;99591.88;1709860;83;21652;-66
2021/07/13 04:01:43;;;;;;;9.53;7.55;;;;;;;22.92;68.44;99586.72;1698566;83;21054;-66
2021/07/13 04:04:10;;;;;;;8.68;7.78;;;;;;;22.85;68.42;99588.54;1699218;83;21074;-66
2021/07/13 04:06:36;;;;;;;10.13;7.40;;;;;;;22.74;68.47;99578.55;1710078;83;21569;-66
2021/07/13 04:09:05;;;;;;;7.90;7.10;;;;;;;22.66;68.42;99575.31;1698749;84;21014;-66
2021/07/13 04:11:33;;;;;;;8.35;7.47;;;;;;;22.56;68.26;99581.39;1698489;84;21081;-66
2021/07/13 04:13:59;;;;;;;10.40;8.23;;;;;;;22.50;68.40;99571.69;1695484;83;21572;-66
2021/07/13 04:16:25;;;;;;;8.88;7.47;;;;;;;22.47;68.22;99575.17;1700406;83;21077;-66
2021/07/13 04:18:52;;;;;;;9.05;7.33;;;;;;;22.47;68.31;99573.22;1689091;83;21070;-67
2021/07/13 04:21:19;;;;;;;9.75;7.70;;;;;;;22.55;68.30;99574.22;1696468;83;21059;-66
2021/07/13 04:23:45;;;;;;;9.08;8.18;;;;;;;22.66;68.39;99578.90;1693170;84;21007;-66
2021/07/13 04:26:12;;;;;;;9.93;8.03;;;;;;;22.69;67.98;99580.99;1688733;84;21074;-66
2021/07/13 04:28:38;;;;;;;9.03;7.97;;;;;;;22.71;68.21;99575.07;1698503;84;21082;-67
2021/07/13 04:31:04;;;;;;;11.70;8.23;;;;;;;22.75;68.33;99584.30;1687677;83;21059;-67
2021/07/13 04:33:31;;;;;;;9.60;7.50;;;;;;;22.83;68.38;99580.55;1679127;83;21545;-66
2021/07/13 04:35:57;;;;;;;9.50;8.18;;;;;;;22.90;68.40;99580.73;1677339;84;21049;-66
2021/07/13 04:38:25;;;;;;;9.15;8.25;;;;;;;22.99;68.07;99590.30;1698006;84;21002;-66
2021/07/13 04:40:51;;;;;;;10.70;7.95;;;;;;;23.00;68.01;99582.98;1696890;83;21659;-66
2021/07/13 04:43:18;;;;;;;9.35;8.38;;;;;;;22.96;67.77;99577.10;1707310;83;21011;-66
2021/07/13 04:45:46;;;;;;;8.80;7.90;;;;;;;22.95;67.81;99579.67;1694052;84;21684;-67
2021/07/13 04:48:12;;;;;;;9.38;7.37;;;;;;;22.96;67.19;99577.10;1685809;83;21031;-67
2021/07/13 04:50:39;;;;;;;8.90;8.00;;;;;;;22.90;67.44;99571.60;1697390;83;21640;-66
2021/07/13 04:53:05;;;;;;;8.35;7.28;;;;;;;22.89;67.81;99584.67;1694800;83;21023;-67
2021/07/13 04:55:31;;;;;;;7.80;7.08;;;;;;;22.97;68.07;99589.25;1689006;84;21103;-67
2021/07/13 04:57:58;;;;;;;8.65;7.47;;;;;;;23.13;67.72;99586.48;1688658;84;21546;-67
2021/07/13 05:00:24;;;;;;;8.25;7.37;;;;;;;23.21;66.91;99585.48;1712796;83;21031;-66
2021/07/13 05:02:52;;;;;;;7.78;7.03;;;;;;;23.18;66.44;99573.13;1722176;83;21023;-67
2021/07/13 05:05:19;;;;;;;8.78;7.70;;;;;;;23.19;66.58;99575.33;1722953;83;21580;-67
2021/07/13 05:07:47;;;;;;;8.20;6.80;;;;;;;23.23;66.35;99580.39;1721979;83;20981;-66
2021/07/13 05:10:15;;;;;;;9.03;6.60;;;;;;;23.29;66.42;99589.47;1720427;83;21090;-68
2021/07/13 05:12:42;;;;;;;7.67;6.85;;;;;;;23.43;66.79;99592.39;1718488;83;21453;-67
2021/07/13 05:15:10;;;;;;;8.75;7.20;;;;;;;23.56;66.37;99591.13;1719405;82;21100;-67
2021/07/13 05:17:38;;;;;;;8.95;6.70;;;;;;;23.69;65.90;99585.67;1713375;82;20964;-67
2021/07/13 05:20:08;;;;;;;7.33;6.62;;;;;;;23.69;65.90;99585.67;1716463;82;20997;-65
2021/07/13 05:22:34;;;;;;;8.08;6.65;;;;;;;23.89;65.62;99582.33;1716927;82;21012;-66
2021/07/13 05:25:05;;;;;;;9.18;6.78;;;;;;;24.22;65.15;99583.50;1718645;82;21091;-65
2021/07/13 05:27:36;;;;;;;7.40;6.53;;;;;;;24.59;64.20;99583.00;1719181;82;20985;-65
2021/07/13 05:30:04;;;;;;;8.55;6.33;;;;;;;24.98;63.43;99578.98;1718606;82;21582;-66
2021/07/13 05:32:31;;;;;;;7.25;6.55;;;;;;;25.39;61.54;99584.84;1717418;83;21017;-67
2021/07/13 05:34:57;;;;;;;6.90;6.20;;;;;;;25.66;60.49;99583.11;1721536;82;20966;-67
2021/07/13 05:37:23;;;;;;;7.25;5.53;;;;;;;25.95;59.36;99584.31;1721406;83;21005;-68
2021/07/13 05:39:50;;;;;;;6.65;5.97;;;;;;;26.19;59.24;99585.25;1721538;82;21024;-67
2021/07/13 05:42:16;;;;;;;8.30;6.65;;;;;;;26.44;59.62;99578.58;1721826;83;21536;-68
2021/07/13 05:44:42;;;;;;;8.55;6.80;;;;;;;26.78;58.88;99579.94;1722590;83;21054;-68
2021/07/13 05:47:09;;;;;;;7.15;6.20;;;;;;;27.10;57.96;99577.67;1722856;83;21758;-67
2021/07/13 05:49:35;;;;;;;7.62;5.97;;;;;;;27.37;56.43;99578.89;1722992;83;21007;-67
2021/07/13 05:52:03;;;;;;;6.95;6.25;;;;;;;27.55;56.23;99580.67;1722858;83;21730;-67
2021/07/13 05:54:30;;;;;;;8.40;5.60;;;;;;;27.80;56.07;99578.03;1669620;83;21037;-67
2021/07/13 05:56:56;;;;;;;6.87;5.25;;;;;;;28.08;54.55;99575.41;1722868;82;21122;-67
2021/07/13 05:59:22;;;;;;;8.43;5.53;;;;;;;28.41;53.75;99583.34;1722311;83;21049;-67
2021/07/13 06:01:49;;;;;;;6.72;5.42;;;;;;;28.54;51.79;99574.77;1720805;83;21065;-68
2021/07/13 06:04:16;;;;;;;8.15;5.08;;;;;;;28.62;51.75;99575.81;1715151;83;21099;-67
2021/07/13 06:06:42;;;;;;;8.43;5.37;;;;;;;28.63;51.99;99575.19;1714332;84;21079;-67
2021/07/13 06:09:08;;;;;;;7.47;5.20;;;;;;;28.64;52.07;99582.40;1714615;84;21589;-68
2021/07/13 06:14:12;;;;;;;;;;;;;;;28.67;50.34;99578.83;1807174;79;22940;-68
2021/07/13 06:16:39;;;;;;;10.93;4.50;;;;;;;28.61;50.88;99568.59;1749238;81;20130;-67
2021/07/13 06:19:06;;;;;;;6.12;4.70;;;;;;;28.66;50.32;99572.39;1746147;82;21043;-69
2021/07/13 06:21:33;;;;;;;6.87;4.65;;;;;;;28.70;50.33;99566.83;1728242;82;20990;-67
2021/07/13 06:23:59;;;;;;;6.03;4.55;;;;;;;28.87;50.89;99572.28;1752979;82;21039;-68
2021/07/13 06:26:25;;;;;;;6.37;4.75;;;;;;;29.12;50.51;99574.51;1752900;82;21046;-68
2021/07/13 06:28:53;;;;;;;7.28;4.60;;;;;;;29.40;50.54;99575.13;1750662;82;21042;-67
2021/07/13 06:31:19;;;;;;;5.90;4.95;;;;;;;29.62;49.66;99586.50;1730881;81;21059;-67
2021/07/13 06:33:46;;;;;;;7.72;4.85;;;;;;;29.80;48.32;99576.64;1711762;82;21023;-67
2021/07/13 06:36:12;;;;;;;6.45;4.28;;;;;;;29.80;47.50;99573.24;1752774;82;20995;-67
2021/07/13 06:38:39;;;;;;;4.90;4.30;;;;;;;29.89;47.32;99575.67;1734468;82;21015;-67
2021/07/13 06:41:06;;;;;;;8.40;4.40;;;;;;;29.88;47.85;99577.67;1732929;82;21534;-68
2021/07/13 06:43:32;;;;;;;6.20;4.40;;;;;;;30.06;49.16;99584.63;1730922;80;21020;-67
2021/07/13 06:46:00;;;;;;;6.83;4.47;;;;;;;30.25;48.13;99587.58;1746804;82;21030;-67
2021/07/13 06:48:26;;;;;;;5.83;4.08;;;;;;;30.42;48.60;99586.73;1736906;82;21019;-67
2021/07/13 06:50:53;;;;;;;6.22;4.08;;;;;;;30.71;47.21;99590.19;1738449;82;21605;-67
2021/07/13 06:53:20;;;;;;;5.28;4.17;;;;;;;30.84;45.09;99593.51;1733181;82;21038;-67
2021/07/13 06:55:46;;;;;;;7.65;4.50;;;;;;;30.91;45.10;99596.27;1728494;82;21087;-67
2021/07/13 06:58:13;;;;;;;6.47;4.50;;;;;;;30.95;44.54;99592.84;1749656;82;21035;-67
2021/07/13 07:00:39;;;;;;;5.95;4.55;;;;;;;30.93;45.62;99596.64;1748796;82;21046;-67
2021/07/13 07:03:06;;;;;;;5.15;4.47;;;;;;;30.77;45.42;99587.94;1747093;81;21059;-67
2021/07/13 07:05:32;;;;;;;6.62;4.62;;;;;;;30.82;45.31;99588.89;1738923;82;21014;-66
2021/07/13 07:07:59;;;;;;;5.55;4.47;;;;;;;30.97;45.29;99585.41;1746276;82;21003;-68
2021/07/13 07:10:25;;;;;;;5.08;4.28;;;;;;;31.08;44.07;99583.33;1746225;82;21616;-67
2021/07/13 07:12:51;;;;;;;9.03;4.30;;;;;;;31.05;44.18;99577.93;1721637;82;21114;-67
2021/07/13 07:15:18;;;;;;;6.42;4.28;;;;;;;30.73;45.14;99586.34;1738014;82;21044;-68
2021/07/13 07:17:52;;;;;;;5.62;4.10;;;;;;;30.73;44.75;99587.16;1739354;82;21035;-67
2021/07/13 07:20:28;;;;;;;5.75;4.37;;;;;;;30.84;44.65;99592.10;1737443;82;21106;-65
2021/07/13 07:22:56;;;;;;;8.80;4.35;;;;;;;30.94;44.14;99596.84;1745013;82;21051;-69
2021/07/13 07:25:23;;;;;;;7.45;4.20;;;;;;;31.06;43.56;99589.98;1736194;82;21111;-69
2021/07/13 07:27:51;;;;;;;5.17;3.83;;;;;;;31.26;42.16;99581.78;1737872;82;21027;-68
2021/07/13 07:30:18;;;;;;;6.58;4.00;;;;;;;31.37;41.87;99581.08;1744939;82;21643;-69
2021/07/13 07:32:45;;;;;;;8.08;4.00;;;;;;;31.37;42.88;99574.05;1746512;82;21065;-69
2021/07/13 07:35:11;;;;;;;6.37;4.33;;;;;;;31.33;42.91;99573.28;1739763;82;21012;-69
2021/07/13 07:37:38;;;;;;;7.10;4.50;;;;;;;31.40;42.57;99573.22;1745136;82;21444;-69
2021/07/13 07:40:06;;;;;;;5.15;3.70;;;;;;;31.53;42.47;99572.31;1739583;82;21508;-69
2021/07/13 07:42:33;;;;;;;5.25;3.77;;;;;;;31.60;42.61;99567.25;1689830;82;21086;-69
2021/07/13 07:44:59;;;;;;;5.67;4.10;;;;;;;31.62;43.24;99569.02;1717737;83;21027;-70
2021/07/13 07:47:26;;;;;;;5.70;4.67;;;;;;;31.54;43.72;99571.70;1717915;83;21557;-70
2021/07/13 07:49:52;;;;;;;5.58;4.53;;;;;;;31.33;42.22;99569.06;1738367;82;20987;-69
2021/07/13 07:52:19;;;;;;;6.92;4.80;;;;;;;31.17;42.42;99568.81;1747621;82;21005;-69
2021/07/13 07:54:46;;;;;;;5.35;4.85;;;;;;;31.24;42.36;99568.75;1747408;82;21020;-68
2021/07/13 07:57:12;;;;;;;4.53;4.10;;;;;;;31.16;41.94;99564.39;1747229;82;21588;-70
2021/07/13 07:59:40;;;;;;;7.33;4.80;;;;;;;31.13;42.67;99565.22;1717697;82;20984;-69
2021/07/13 08:02:08;;;;;;;6.67;4.42;;;;;;;31.28;44.50;99562.50;1746470;82;21059;-69
2021/07/13 08:04:35;;;;;;;6.33;4.58;;;;;;;31.37;45.70;99566.42;1734483;82;21623;-69
2021/07/13 08:07:02;;;;;;;7.53;5.03;;;;;;;31.53;45.30;99566.69;1717492;83;21118;-69
2021/07/13 08:09:28;;;;;;;6.08;4.83;;;;;;;31.76;45.25;99563.25;1691314;82;21517;-69
2021/07/13 08:11:55;;;;;;;5.22;4.72;;;;;;;31.93;43.34;99557.22;1718759;82;21094;-68
2021/07/13 08:14:21;;;;;;;11.03;4.85;;;;;;;31.93;43.44;99571.30;1722866;82;21675;-69
2021/07/13 08:16:49;;;;;;;9.03;4.62;;;;;;;31.95;43.82;99571.70;1723116;83;21094;-70
2021/07/13 08:19:16;;;;;;;5.78;4.30;;;;;;;32.01;44.28;99569.40;1741398;82;21109;-68
2021/07/13 08:21:43;;;;;;;5.33;4.70;;;;;;;32.02;44.18;99570.20;1753262;82;21008;-67
2021/07/13 08:24:11;;;;;;;6.03;5.05;;;;;;;32.21;43.88;99567.37;1753645;82;21030;-67
2021/07/13 08:26:39;;;;;;;5.35;4.53;;;;;;;32.34;42.52;99554.34;1753196;82;21529;-68
2021/07/13 08:29:05;;;;;;;6.67;4.37;;;;;;;32.38;43.27;99562.91;1751146;82;20991;-70
2021/07/13 08:31:32;;;;;;;8.95;4.83;;;;;;;32.40;43.90;99560.49;1749395;82;21101;-69
2021/07/13 08:33:59;;;;;;;8.45;4.50;;;;;;;32.37;41.50;99561.34;1696888;83;21605;-68
2021/07/13 08:36:25;;;;;;;6.00;4.20;;;;;;;32.36;42.56;99559.73;1723404;83;21054;-69
2021/07/13 08:38:51;;;;;;;7.70;4.87;;;;;;;32.50;43.51;99558.13;1747282;82;21066;-69
2021/07/13 08:41:20;;;;;;;8.58;4.40;;;;;;;32.63;40.78;99558.37;1753060;82;21043;-68
2021/07/13 08:43:48;;;;;;;7.50;4.28;;;;;;;32.66;39.92;99561.78;1752863;82;21059;-69
2021/07/13 08:46:15;;;;;;;8.23;4.37;;;;;;;32.67;39.15;99563.35;1753016;82;21652;-68
2021/07/13 08:48:42;;;;;;;7.42;4.37;;;;;;;32.61;38.50;99562.24;1736985;82;21054;-68
2021/07/13 08:51:08;;;;;;;7.30;4.40;;;;;;;32.47;38.13;99561.80;1723512;82;21528;-68
2021/07/13 08:53:35;;;;;;;9.60;4.80;;;;;;;32.50;39.62;99564.38;1723284;83;21082;-68
2021/07/13 08:56:01;;;;;;;7.00;4.72;;;;;;;32.63;38.62;99559.78;1723463;83;21058;-68
2021/07/13 08:58:28;;;;;;;5.90;4.72;;;;;;;32.65;38.60;99561.58;1734190;82;21498;-69
2021/07/13 09:00:54;;;;;;;7.22;4.80;;;;;;;32.61;37.78;99560.03;1733405;82;21106;-68
2021/07/13 09:03:21;;;;;;;7.45;4.35;;;;;;;32.44;38.75;99565.47;1753053;82;21031;-69
2021/07/13 09:05:50;;;;;;;6.65;4.08;;;;;;;32.46;38.66;99557.98;1752633;82;21059;-68
2021/07/13 09:08:21;;;;;;;5.85;4.37;;;;;;;32.59;39.44;99563.29;1723205;83;21046;-69
2021/07/13 09:11:14;;;;;;;5.90;4.00;;;;;;;32.78;39.90;99566.81;1723307;83;21105;-70
2021/07/13 09:13:44;;;;;;;7.53;4.60;;;;;;;32.87;38.98;99557.23;1722978;83;21070;-69
2021/07/13 09:16:16;;;;;;;7.50;4.87;;;;;;;32.81;40.42;99561.73;1723624;82;21047;-68
2021/07/13 09:18:54;;;;;;;7.47;4.80;;;;;;;32.84;39.30;99555.23;1753110;82;21034;-69
2021/07/13 09:21:24;;;;;;;5.65;4.42;;;;;;;32.72;38.13;99551.61;1753213;81;21019;-69
2021/07/13 09:24:11;;;;;;;6.60;4.75;;;;;;;32.31;39.51;99554.56;1753431;82;21085;-70
2021/07/13 09:26:47;;;;;;;9.48;4.97;;;;;;;31.96;39.79;99555.77;1731630;82;21010;-70
2021/07/13 09:29:36;;;;;;;8.65;4.33;;;;;;;31.70;40.21;99546.64;1723561;83;21027;-68
2021/07/13 09:32:31;;;;;;;6.42;3.90;;;;;;;31.74;41.64;99552.23;1723287;83;21533;-70
2021/07/13 09:35:06;;;;;;;6.95;4.83;;;;;;;32.01;41.56;99552.51;1723241;83;21132;-70
2021/07/13 09:37:34;;;;;;;6.90;5.10;;;;;;;32.19;41.41;99553.73;1751299;82;21011;-68
2021/07/13 09:40:13;;;;;;;7.50;4.80;;;;;;;32.39;40.97;99556.06;1732005;82;20995;-68
2021/07/13 09:42:52;;;;;;;6.35;4.47;;;;;;;32.57;39.33;99553.00;1723436;83;21528;-68
2021/07/13 09:45:23;;;;;;;11.63;5.08;;;;;;;32.63;39.65;99556.19;1739535;82;21027;-68
2021/07/13 09:47:55;;;;;;;8.93;5.42;;;;;;;32.67;40.33;99556.30;1753129;82;21027;-69
2021/07/13 09:50:44;;;;;;;7.33;4.75;;;;;;;32.67;38.90;99552.08;1753149;82;21605;-69
2021/07/13 09:53:17;;;;;;;8.70;5.03;;;;;;;32.45;39.56;99556.41;1753151;82;21011;-69
2021/07/13 09:55:45;;;;;;;10.10;5.15;;;;;;;32.40;39.91;99553.45;1736640;82;21047;-69
2021/07/13 09:58:20;;;;;;;6.03;4.80;;;;;;;32.51;38.98;99556.12;1734725;82;21087;-69
2021/07/13 10:00:51;;;;;;;8.43;5.00;;;;;;;32.59;38.43;99555.44;1753170;82;21066;-69
2021/07/13 10:03:19;;;;;;;8.53;4.70;;;;;;;32.59;37.66;99552.02;1750668;82;21525;-69
2021/07/13 10:05:48;;;;;;;6.53;4.20;;;;;;;32.58;38.77;99555.22;1723281;83;21580;-69
2021/07/13 10:08:16;;;;;;;10.13;4.33;;;;;;;32.72;38.22;99550.20;1697484;83;21050;-68
2021/07/13 10:10:44;;;;;;;8.45;4.42;;;;;;;32.94;38.35;99548.66;1723212;83;21016;-69
2021/07/13 10:13:12;;;;;;;5.70;4.22;;;;;;;33.10;37.98;99540.14;1721768;83;21018;-70
2021/07/13 10:15:44;;;;;;;8.35;4.58;;;;;;;33.14;37.00;99543.12;1735552;82;21088;-67
2021/07/13 10:18:12;;;;;;;7.15;4.12;;;;;;;33.02;38.62;99550.13;1718637;82;21008;-68
2021/07/13 10:20:39;;;;;;;10.35;4.95;;;;;;;32.97;38.70;99542.77;1735927;82;21541;-68
2021/07/13 10:23:08;;;;;;;8.28;4.47;;;;;;;32.99;39.22;99548.77;1718427;82;21008;-67
2021/07/13 10:25:44;;;;;;;6.28;4.60;;;;;;;33.04;38.92;99554.73;1703358;83;21062;-67
2021/07/13 10:28:11;;;;;;;5.33;4.08;;;;;;;33.07;38.13;99546.63;1710153;84;21542;-67
2021/07/13 10:30:39;;;;;;;6.22;4.45;;;;;;;33.10;37.61;99541.55;1709843;84;21047;-68
2021/07/13 10:33:35;;;;;;;5.75;4.35;;;;;;;33.21;39.49;99543.61;1714481;82;20948;-67
2021/07/13 10:36:31;;;;;;;5.05;4.50;;;;;;;33.25;37.54;99541.53;1739279;82;21626;-68
2021/07/13 10:39:30;;;;;;;5.17;4.10;;;;;;;33.18;37.70;99537.42;1739213;82;21082;-68
2021/07/13 10:41:59;;;;;;;5.62;4.20;;;;;;;33.23;38.71;99536.94;1739089;82;21601;-68
2021/07/13 10:44:46;;;;;;;5.60;4.50;;;;;;;33.12;38.24;99539.14;1736899;82;21019;-70
2021/07/13 10:47:21;;;;;;;;;;;;;;;32.95;37.82;99536.75;1741402;82;21080;-70
2021/07/13 10:50:18;;;;;;;6.90;4.40;;;;;;;32.68;38.04;99535.37;1739024;81;20421;-69
2021/07/13 10:52:53;;;;;;;5.72;4.35;;;;;;;32.53;39.43;99534.74;1729359;82;20976;-69
2021/07/13 10:55:37;;;;;;;9.90;4.42;;;;;;;32.71;40.24;99537.33;1709369;83;21565;-69
2021/07/13 10:58:15;;;;;;;5.45;4.53;;;;;;;32.96;39.65;99539.77;1709889;83;21016;-69
2021/07/13 11:00:54;;;;;;;5.78;4.55;;;;;;;33.22;40.30;99538.16;1710018;84;21127;-68
2021/07/13 11:03:35;;;;;;;8.80;4.25;;;;;;;33.39;38.37;99538.45;1712092;82;21490;-68
2021/07/13 11:06:10;;;;;;;11.97;4.37;;;;;;;33.49;38.57;99536.85;1710036;82;21098;-68
2021/07/13 11:09:00;;;;;;;9.00;5.22;;;;;;;33.60;37.38;99535.86;1710024;84;21032;-68
2021/07/13 11:11:29;;;;;;;6.15;4.62;;;;;;;33.63;36.57;99528.77;1708924;82;21747;-68
2021/07/13 11:13:58;;;;;;;7.15;4.47;;;;;;;33.76;37.71;99531.15;1743303;81;21125;-68
2021/07/13 11:16:35;;;;;;;8.10;4.67;;;;;;;33.89;36.72;99522.82;1753131;82;21581;-68
2021/07/13 11:19:11;;;;;;;6.97;4.90;;;;;;;33.82;36.52;99522.96;1748701;82;21082;-67
2021/07/13 11:21:37;;;;;;;7.72;4.80;;;;;;;33.75;36.89;99520.28;1744662;82;21011;-67
2021/07/13 11:24:13;;;;;;;6.87;4.42;;;;;;;33.82;37.50;99521.55;1753138;82;21113;-68
2021/07/13 11:26:44;;;;;;;7.85;4.95;;;;;;;33.94;37.62;99525.92;1745426;82;21030;-66
2021/07/13 11:29:19;;;;;;;5.35;4.25;;;;;;;34.01;36.39;99522.18;1744054;82;21003;-67
2021/07/13 11:31:52;;;;;;;6.67;4.45;;;;;;;33.92;36.88;99521.33;1729024;82;21086;-66
2021/07/13 11:34:21;;;;;;;7.92;4.60;;;;;;;33.89;37.29;99519.38;1742321;82;21022;-68
2021/07/13 11:36:51;;;;;;;7.95;4.67;;;;;;;33.70;36.89;99519.36;1732992;82;21018;-66
2021/07/13 11:39:27;;;;;;;6.58;4.17;;;;;;;33.57;37.29;99519.79;1737939;82;20986;-65
2021/07/13 11:41:55;;;;;;;6.55;4.17;;;;;;;33.51;37.79;99515.27;1733195;82;21006;-66
2021/07/13 11:44:22;;;;;;;7.40;4.35;;;;;;;33.57;37.47;99519.18;1720655;82;20955;-67
2021/07/13 11:46:50;;;;;;;5.58;4.00;;;;;;;33.48;35.73;99518.93;1740680;82;21035;-66
2021/07/13 11:49:19;;;;;;;8.20;4.83;;;;;;;33.25;36.87;99514.13;1743701;82;20997;-66